createdAt,value
2023-02-20T00:00:32.284Z,7.90
2023-02-20T00:05:35.492Z,8.57
2023-02-20T00:10:37.324Z,8.23
2023-02-20T00:15:39.102Z,8.03
2023-02-20T00:20:42.217Z,9.07
2023-02-20T00:25:43.966Z,9.23
2023-02-20T00:30:45.757Z,9.90
2023-02-20T00:35:50.174Z,10.03
2023-02-20T00:40:51.880Z,9.90
2023-02-20T00:45:53.584Z,9.77
2023-02-20T00:50:58.835Z,10.03
2023-02-20T00:56:00.578Z,10.00
2023-02-20T01:01:02.372Z,10.10
2023-02-20T01:06:05.924Z,10.40
2023-02-20T01:11:07.644Z,10.63
2023-02-20T01:16:10.439Z,10.67
2023-02-20T01:21:13.688Z,9.90
2023-02-20T01:26:15.454Z,9.80
2023-02-20T01:31:17.300Z,9.27
2023-02-20T01:36:20.980Z,9.20
2023-02-20T01:41:22.868Z,9.13
2023-02-20T01:46:44.429Z,8.40
2023-02-20T01:51:49.521Z,7.70
2023-02-20T01:56:51.371Z,8.40
2023-02-20T02:01:53.202Z,7.80
2023-02-20T02:06:56.369Z,7.80
2023-02-20T02:11:58.110Z,7.63
2023-02-20T02:17:12.803Z,6.90
2023-02-20T02:22:42.220Z,6.97
2023-02-20T02:28:04.311Z,7.73
2023-02-20T02:33:24.541Z,9.37
2023-02-20T02:38:30.822Z,9.03
2023-02-20T02:43:35.940Z,8.97
2023-02-20T02:48:40.149Z,8.23
2023-02-20T02:53:43.499Z,7.13
2023-02-20T02:58:45.285Z,6.23
2023-02-20T03:03:47.026Z,5.83
2023-02-20T03:08:57.839Z,6.23
2023-02-20T03:14:20.013Z,5.70
2023-02-20T03:19:27.420Z,5.80
2023-02-20T03:24:30.480Z,6.17
2023-02-20T03:29:34.308Z,6.10
2023-02-20T03:34:54.573Z,6.20
2023-02-20T03:40:17.543Z,6.00
2023-02-20T03:45:20.007Z,6.50
2023-02-20T03:50:41.000Z,6.43
2023-02-20T03:55:44.501Z,7.30
2023-02-20T04:00:48.310Z,8.20
2023-02-20T04:05:51.229Z,11.77
2023-02-20T04:11:00.038Z,9.17
2023-02-20T04:16:02.589Z,9.27
2023-02-20T04:21:07.473Z,9.30
2023-02-20T04:26:17.590Z,11.20
2023-02-20T04:31:21.878Z,11.80
2023-02-20T04:36:25.240Z,11.30
2023-02-20T04:41:30.739Z,13.70
2023-02-20T04:46:33.366Z,14.00
2023-02-20T04:51:35.328Z,16.43
2023-02-20T04:56:38.485Z,15.70
2023-02-20T05:01:41.845Z,19.27
2023-02-20T05:06:44.070Z,18.27
2023-02-20T05:11:47.279Z,20.10
2023-02-20T05:16:51.136Z,20.00
2023-02-20T05:22:11.378Z,20.90
2023-02-20T05:27:14.963Z,20.00
2023-02-20T05:32:16.931Z,23.07
2023-02-20T05:37:19.417Z,19.83
2023-02-20T05:42:22.961Z,20.73
2023-02-20T05:47:24.673Z,21.10
2023-02-20T05:52:26.447Z,21.50
2023-02-20T05:57:29.541Z,19.60
2023-02-20T06:02:31.737Z,19.33
2023-02-20T06:07:33.618Z,19.00
2023-02-20T06:12:36.680Z,17.63
2023-02-20T06:17:38.406Z,17.13
2023-02-20T06:22:40.186Z,16.60
2023-02-20T06:27:43.448Z,16.70
2023-02-20T06:32:45.827Z,15.87
2023-02-20T06:37:47.526Z,14.70
2023-02-20T06:42:50.691Z,14.37
2023-02-20T06:47:52.438Z,13.03
2023-02-20T06:52:54.607Z,12.30
2023-02-20T06:57:57.633Z,10.73
2023-02-20T07:02:59.358Z,10.73
2023-02-20T07:08:01.535Z,10.10
2023-02-20T07:13:06.209Z,9.93
2023-02-20T07:18:08.002Z,9.67
2023-02-20T07:23:09.902Z,9.33
2023-02-20T07:28:13.021Z,8.37
2023-02-20T07:33:14.857Z,8.17
2023-02-20T07:38:16.540Z,8.40
2023-02-20T07:43:19.982Z,7.47
2023-02-20T07:48:25.545Z,7.20
2023-02-20T07:53:27.233Z,6.93
2023-02-20T07:58:30.306Z,7.68
2023-02-20T08:03:32.022Z,7.37
2023-02-20T08:08:33.762Z,7.00
2023-02-20T08:13:36.826Z,7.97
2023-02-20T08:18:38.500Z,7.07
2023-02-20T08:23:40.247Z,6.87
2023-02-20T08:28:43.342Z,7.97
2023-02-20T08:33:45.098Z,8.50
2023-02-20T08:38:46.801Z,8.83
2023-02-20T08:43:49.917Z,9.73
2023-02-20T08:48:51.663Z,9.70
2023-02-20T08:53:53.411Z,9.37
2023-02-20T08:58:56.500Z,10.10
2023-02-20T09:03:58.243Z,12.40
2023-02-20T09:09:00.027Z,12.90
2023-02-20T09:14:03.176Z,12.70
2023-02-20T09:19:07.314Z,13.50
2023-02-20T09:24:09.023Z,15.00
2023-02-20T09:29:12.165Z,15.67
2023-02-20T09:34:13.940Z,15.57
2023-02-20T09:39:17.815Z,15.80
2023-02-20T09:44:23.451Z,16.47
2023-02-20T09:49:26.235Z,17.30
2023-02-20T09:54:29.461Z,17.63
2023-02-20T09:59:35.084Z,18.57
2023-02-20T10:04:38.531Z,18.40
2023-02-20T10:09:40.237Z,18.60
2023-02-20T10:14:54.889Z,18.80
2023-02-20T10:20:00.336Z,19.33
2023-02-20T10:25:08.526Z,19.70
2023-02-20T10:30:12.461Z,19.70
2023-02-20T10:35:15.386Z,19.20
2023-02-20T10:40:20.016Z,19.60
2023-02-20T10:45:28.168Z,19.47
2023-02-20T10:50:32.259Z,18.20
2023-02-20T10:55:35.185Z,19.73
2023-02-20T11:00:39.578Z,18.73
2023-02-20T11:05:45.097Z,20.00
2023-02-20T11:10:46.823Z,21.73
2023-02-20T11:15:50.558Z,19.70
2023-02-20T11:20:53.875Z,20.90
2023-02-20T11:25:55.600Z,20.40
2023-02-20T11:31:00.796Z,21.33
2023-02-20T11:36:10.467Z,20.97
2023-02-20T11:41:25.831Z,22.73
2023-02-20T11:46:29.263Z,21.73
2023-02-20T11:51:32.145Z,23.00
2023-02-20T11:56:34.025Z,21.63
2023-02-20T12:01:38.166Z,21.30
2023-02-20T12:06:42.054Z,20.97
2023-02-20T12:11:44.958Z,21.57
2023-02-20T12:16:57.943Z,22.47
2023-02-20T12:22:01.747Z,22.07
2023-02-20T12:27:05.231Z,20.50
2023-02-20T12:32:19.431Z,20.33
2023-02-20T12:37:25.236Z,21.13
2023-02-20T12:42:29.834Z,21.20
2023-02-20T12:47:33.730Z,20.70
2023-02-20T12:52:46.129Z,21.97
2023-02-20T12:57:51.541Z,22.13
2023-02-20T13:02:58.850Z,21.13
2023-02-20T13:08:01.589Z,23.10
2023-02-20T13:13:03.388Z,23.13
2023-02-20T13:18:10.346Z,23.40
2023-02-20T13:23:30.758Z,22.00
2023-02-20T13:28:42.625Z,21.93
2023-02-20T13:33:46.478Z,20.70
2023-02-20T13:39:45.056Z,21.33
2023-02-20T13:44:47.153Z,19.90
2023-02-20T13:49:58.895Z,20.50
2023-02-20T13:55:02.399Z,20.20
2023-02-20T14:00:14.893Z,21.70
2023-02-20T14:05:20.405Z,21.60
2023-02-20T14:10:25.893Z,21.17
2023-02-20T14:15:28.234Z,21.33
2023-02-20T14:20:35.942Z,24.40
2023-02-20T14:25:37.844Z,21.10
2023-02-20T14:30:41.768Z,20.70
2023-02-20T14:35:56.056Z,21.00
2023-02-20T14:40:59.603Z,21.07
2023-02-20T14:46:03.879Z,19.53
2023-02-20T14:51:13.232Z,19.30
2023-02-20T14:56:17.262Z,16.60
2023-02-20T15:01:35.284Z,17.10
2023-02-20T15:06:38.840Z,17.07
2023-02-20T15:11:46.396Z,17.57
2023-02-20T15:16:48.095Z,17.65
2023-02-20T15:21:57.699Z,14.97
2023-02-20T15:27:09.843Z,15.07
2023-02-20T15:32:19.888Z,16.40
2023-02-20T15:37:30.461Z,13.60
2023-02-20T15:42:39.888Z,13.60
2023-02-20T15:47:41.731Z,13.50
2023-02-20T15:52:45.167Z,12.57
2023-02-20T15:57:47.147Z,14.00
2023-02-20T16:02:49.030Z,12.97
2023-02-20T16:07:52.235Z,13.50
2023-02-20T16:12:54.840Z,13.23
2023-02-20T16:17:56.556Z,14.50
2023-02-20T16:22:59.725Z,14.23
2023-02-20T16:28:01.509Z,13.60
2023-02-20T16:33:03.397Z,14.40
2023-02-20T16:38:06.450Z,15.30
2023-02-20T16:43:08.160Z,15.87
2023-02-20T16:48:10.596Z,14.90
2023-02-20T16:53:14.049Z,15.80
2023-02-20T16:58:15.865Z,15.67
2023-02-20T17:03:17.622Z,14.63
2023-02-20T17:08:21.465Z,15.40
2023-02-20T17:13:23.133Z,16.15
2023-02-20T17:18:24.778Z,14.65
2023-02-20T17:23:27.889Z,14.30
2023-02-20T17:28:29.635Z,14.63
2023-02-20T17:33:31.369Z,15.53
2023-02-20T17:38:34.577Z,14.40
2023-02-20T17:43:36.359Z,13.40
2023-02-20T17:48:38.133Z,13.70
2023-02-20T17:53:41.399Z,13.50
2023-02-20T17:58:43.259Z,12.67
2023-02-20T18:03:45.088Z,15.83
2023-02-20T18:08:49.714Z,14.43
2023-02-20T18:13:51.596Z,14.90
2023-02-20T18:18:53.372Z,16.33
2023-02-20T18:23:56.517Z,15.83
2023-02-20T18:28:58.907Z,15.03
2023-02-20T18:34:01.858Z,23.60
2023-02-20T18:39:05.400Z,17.20
2023-02-20T18:44:07.870Z,17.07
2023-02-20T18:49:09.682Z,16.53
2023-02-20T18:54:16.924Z,15.50
2023-02-20T18:59:18.959Z,15.10
2023-02-20T19:04:20.747Z,17.00
2023-02-20T19:09:24.438Z,15.97
2023-02-20T19:14:29.164Z,15.00
2023-02-20T19:19:31.536Z,16.35
2023-02-20T19:24:37.711Z,14.90
2023-02-20T19:29:41.746Z,17.77
2023-02-20T19:34:44.255Z,17.70
2023-02-20T19:39:47.454Z,19.00
2023-02-20T19:44:49.285Z,19.60
2023-02-20T19:49:51.746Z,19.20
2023-02-20T19:54:54.799Z,21.30
2023-02-20T19:59:56.558Z,20.03
2023-02-20T20:04:58.400Z,18.20
2023-02-20T20:10:01.510Z,21.90
2023-02-20T20:15:05.837Z,20.67
2023-02-20T20:20:10.994Z,21.07
2023-02-20T20:25:14.172Z,21.37
2023-02-20T20:30:17.260Z,22.67
2023-02-20T20:35:19.642Z,22.30
2023-02-20T20:40:22.994Z,22.17
2023-02-20T20:45:24.865Z,21.70
2023-02-20T20:50:27.824Z,22.07
2023-02-20T20:55:31.076Z,23.80
2023-02-20T21:00:33.601Z,23.30
2023-02-20T21:05:35.423Z,22.80
2023-02-20T21:10:38.456Z,25.60
2023-02-20T21:15:40.245Z,25.30
2023-02-20T21:20:42.012Z,24.70
2023-02-20T21:25:45.044Z,24.10
2023-02-20T21:30:47.685Z,25.90
2023-02-20T21:35:49.571Z,25.90
2023-02-20T21:40:54.716Z,26.20
2023-02-20T21:45:56.392Z,27.07
2023-02-20T21:50:58.070Z,27.50
2023-02-20T21:56:01.059Z,27.50
2023-02-20T22:01:02.755Z,27.40
2023-02-20T22:06:04.690Z,27.03
2023-02-20T22:11:26.258Z,27.37
2023-02-20T22:16:46.516Z,26.87
2023-02-20T22:22:06.845Z,27.73
2023-02-20T22:27:28.417Z,27.37
2023-02-20T22:32:48.608Z,26.23
2023-02-20T22:38:08.969Z,26.77
2023-02-20T22:43:30.972Z,26.80
2023-02-20T22:48:51.259Z,28.80
2023-02-20T22:54:11.733Z,29.27
2023-02-20T22:59:33.246Z,27.80
2023-02-20T23:04:53.640Z,28.60
2023-02-20T23:10:13.949Z,27.00
2023-02-20T23:15:35.735Z,28.87
2023-02-20T23:20:56.077Z,28.03
2023-02-20T23:26:16.254Z,28.07
2023-02-20T23:31:37.909Z,28.43
2023-02-20T23:36:58.069Z,31.03
2023-02-20T23:42:18.347Z,28.80
2023-02-20T23:47:39.940Z,30.93
2023-02-20T23:53:00.328Z,28.80
2023-02-20T23:58:20.520Z,28.23
